CTL weather

Charleville Airport
Charleville, Queensland, Australia

Public forecast

Using degrees Celsius for public forecast. Weather courtesy of forecast.io.

METAR (pilot weather report)

Retrieved 2019/04/21 05:00 UTC (50 minutes ago):

YBCV 210500Z AUTO 08009KT 9999 // SCT053 BKN063 28/14 Q1017

TAF (pilot weather forecast)

Forecast is more than 6 hours old.

Closest forecast is Rockhampton Airport, 292.8 nm (542.3 km) NE. Retrieved 2019/04/20 18:36 UTC (11 hours ago):

TAF YBRK 201627Z 2018/2118 15008KT 9999 SCT015 BKN022 FM202300 11017KT 9999 -SHRA SCT025 BKN040 FM210800 13008KT 9999 SCT020 BKN030 FM211000 14008KT 9999 SCT015 BKN020 TEMPO 2018/2022 9999 NSW BKN012 INTER 2101/2110 11020G30KT 3000 SHRA SCT015 BKN025